KALS/ALS METAR and TAF weather

Enter ICAO airport designator
Station Type Date Time Source
KALS METAR 2019/12/12 11:52 UTC NOAA

KALS 121152Z AUTO 23003KT 10SM CLR M15/M18 A3019 RMK AO2 SLP272 7//// I6000 T11501178 11106 21156 55004 $


Station Type Date Time Source
KALS Decoded METAR 2019/12/12 11:52 UTC NOAA

SAN LUIS VALLEY REGIONAL, CO, United States (KALS) 37-26N 105-52W 2299M
Dec 12, 2019 - 06:52 AM EST / 2019.12.12 1152 UTC
Wind: from the SW (230 degrees) at 3 MPH (3 KT):0
Visibility: 10 mile(s):0
Sky conditions: clear
Temperature: 5.0 F (-15.0 C)
Dew Point: -0.0 F (-17.8 C)
Relative Humidity: 79%
Pressure (altimeter): 30.19 in. Hg (1022 hPa)
Pressure tendency: 0.01 inches (0.4 hPa) lower than three hours ago
ob: KALS 121152Z AUTO 23003KT 10SM CLR M15/M18 A3019 RMK AO2 SLP272 7//// I6000 T11501178 11106 21156 55004
cycle: 12

Station Type Date Time Source
KALS TAF 2019/12/12 12:39 UTC NOAA

TAF KALS 121135Z 1212/1312 VRB06KT P6SM FEW200
FM121800 20008KT P6SM SCT100 BKN200
FM130200 29008KT P6SM SCT200

Example: see airport list